Time;durP1;ratioP1;P1;durP2;ratioP2;P2;SDS_P1;SDS_P2;PMS_P1;PMS_P2;Temp;Humidity;BMP_temperature;BMP_pressure;BME280_temperature;BME280_humidity;BME280_pressure;Samples;Min_cycle;Max_cycle;Signal;HPM_P1;HPM_P2
2024/02/02 00:01:47;;;;;;;1.60;1.37;;;4.40;98.20;;;;;;4963676;28;20971;-79
2024/02/02 00:04:14;;;;;;;1.60;1.40;;;4.40;98.20;;;;;;4972046;28;20885;-78
2024/02/02 00:06:41;;;;;;;1.60;1.40;;;4.50;98.20;;;;;;4959165;28;20491;-79
2024/02/02 00:09:09;;;;;;;1.60;1.37;;;4.50;98.20;;;;;;4970775;28;20505;-78
2024/02/02 00:11:37;;;;;;;1.60;1.30;;;4.50;98.20;;;;;;4964718;28;20923;-78
2024/02/02 00:14:04;;;;;;;1.60;1.30;;;4.50;98.20;;;;;;4971234;28;20470;-78
2024/02/02 00:16:31;;;;;;;1.60;1.40;;;4.50;98.20;;;;;;4958747;28;20912;-78
2024/02/02 00:18:58;;;;;;;1.60;1.40;;;4.50;98.20;;;;;;4973852;28;20542;-78
2024/02/02 00:21:25;;;;;;;2.23;2.03;;;4.50;98.20;;;;;;4958879;28;20532;-78
2024/02/02 00:23:52;;;;;;;1.60;1.37;;;4.60;98.20;;;;;;4975788;28;20531;-78
2024/02/02 00:26:18;;;;;;;1.60;1.40;;;4.60;98.20;;;;;;4951830;28;20505;-78
2024/02/02 00:28:46;;;;;;;1.60;1.40;;;4.60;98.20;;;;;;4976585;28;20540;-78
2024/02/02 00:31:13;;;;;;;1.60;1.30;;;4.60;98.20;;;;;;4957240;28;20690;-78
2024/02/02 00:33:40;;;;;;;1.60;1.37;;;4.60;98.20;;;;;;4980620;28;20556;-78
2024/02/02 00:36:07;;;;;;;1.63;1.37;;;4.60;98.20;;;;;;4948656;28;20997;-79
2024/02/02 00:38:34;;;;;;;1.60;1.40;;;4.60;98.20;;;;;;4966008;28;20568;-78
2024/02/02 00:41:01;;;;;;;1.60;1.40;;;4.60;98.20;;;;;;4955125;28;20499;-78
2024/02/02 00:43:28;;;;;;;1.60;1.40;;;4.60;98.20;;;;;;4980288;28;20670;-78
2024/02/02 00:45:56;;;;;;;1.60;1.30;;;4.60;98.20;;;;;;4953023;28;20494;-79
2024/02/02 00:48:22;;;;;;;1.60;1.30;;;4.60;98.20;;;;;;4982222;28;20477;-78
2024/02/02 00:50:49;;;;;;;1.60;1.40;;;4.60;98.20;;;;;;4950139;28;20483;-78
2024/02/02 00:53:16;;;;;;;1.60;1.40;;;4.60;98.20;;;;;;4978103;28;20563;-78
2024/02/02 00:55:43;;;;;;;1.60;1.33;;;4.60;98.20;;;;;;4957655;28;20463;-78
2024/02/02 00:58:10;;;;;;;1.63;1.40;;;4.60;98.20;;;;;;4966986;28;21015;-78
2024/02/02 01:00:37;;;;;;;1.60;1.40;;;4.60;98.20;;;;;;4972704;28;20506;-78
2024/02/02 01:03:05;;;;;;;1.60;1.30;;;4.60;98.20;;;;;;4969541;28;20925;-78
2024/02/02 01:05:33;;;;;;;1.60;1.40;;;4.60;98.20;;;;;;4968389;28;20490;-78
2024/02/02 01:07:59;;;;;;;1.60;1.37;;;4.60;98.20;;;;;;4963637;28;20569;-78
2024/02/02 01:10:26;;;;;;;1.60;1.40;;;4.70;98.20;;;;;;4962461;28;21041;-79
2024/02/02 01:12:57;;;;;;;1.60;1.30;;;4.70;98.20;;;;;;4976911;28;20489;-79
2024/02/02 01:15:24;;;;;;;1.60;1.30;;;4.70;98.20;;;;;;4967634;28;20765;-79
2024/02/02 01:17:50;;;;;;;1.60;1.50;;;4.70;98.20;;;;;;4974153;28;20492;-78
2024/02/02 01:20:20;;;;;;;1.60;1.40;;;4.70;98.20;;;;;;4969683;28;20548;-78
2024/02/02 01:22:47;;;;;;;1.60;1.40;;;4.70;98.20;;;;;;4969519;28;20500;-78
2024/02/02 01:25:14;;;;;;;1.60;1.40;;;4.80;98.20;;;;;;4971728;28;20469;-79
2024/02/02 01:27:41;;;;;;;1.60;1.30;;;4.80;98.20;;;;;;4978609;28;20539;-79
2024/02/02 01:30:11;;;;;;;1.67;1.40;;;4.80;98.20;;;;;;4972548;28;20461;-79
2024/02/02 01:32:38;;;;;;;1.60;1.40;;;4.80;98.20;;;;;;4968871;28;20484;-79
2024/02/02 01:35:06;;;;;;;1.60;1.37;;;4.80;98.20;;;;;;4976869;28;20569;-78
2024/02/02 01:37:34;;;;;;;1.60;1.40;;;4.80;98.20;;;;;;4983660;28;20493;-79
2024/02/02 01:40:01;;;;;;;1.80;1.70;;;4.80;98.20;;;;;;4972317;28;20493;-79
2024/02/02 01:42:28;;;;;;;1.60;1.40;;;4.80;98.20;;;;;;4973488;28;20551;-79
2024/02/02 01:44:55;;;;;;;1.60;1.40;;;4.80;98.20;;;;;;4971312;28;20552;-79
2024/02/02 01:47:22;;;;;;;1.60;1.40;;;4.90;98.20;;;;;;4968985;28;20553;-78
2024/02/02 01:49:48;;;;;;;1.60;1.37;;;4.90;98.20;;;;;;4969888;28;20476;-78
2024/02/02 01:52:15;;;;;;;1.60;1.30;;;4.90;98.20;;;;;;4970021;28;20483;-78
2024/02/02 01:54:44;;;;;;;1.60;1.40;;;4.80;98.20;;;;;;4972550;28;20516;-78
2024/02/02 01:57:11;;;;;;;1.60;1.30;;;4.90;98.20;;;;;;4971458;28;20489;-78
2024/02/02 01:59:38;;;;;;;1.67;1.40;;;4.90;98.20;;;;;;4969065;28;20490;-78
2024/02/02 02:02:06;;;;;;;1.60;1.40;;;4.80;98.20;;;;;;4966254;28;20967;-78
2024/02/02 02:04:33;;;;;;;1.60;1.30;;;4.80;98.20;;;;;;4965741;28;20879;-78
2024/02/02 02:07:00;;;;;;;1.60;1.40;;;4.80;98.20;;;;;;4965758;28;20591;-78
2024/02/02 02:09:27;;;;;;;1.63;1.40;;;4.80;98.20;;;;;;4976009;28;20772;-78
2024/02/02 02:11:56;;;;;;;1.60;1.40;;;4.80;98.20;;;;;;4967399;28;20485;-78
2024/02/02 02:14:23;;;;;;;1.60;1.40;;;4.70;98.20;;;;;;4971081;28;20534;-78
2024/02/02 02:16:50;;;;;;;1.60;1.40;;;4.70;98.20;;;;;;4961371;28;20572;-78
2024/02/02 02:19:17;;;;;;;1.60;1.50;;;4.80;98.20;;;;;;4974044;28;20513;-78
2024/02/02 02:21:45;;;;;;;1.60;1.30;;;4.80;98.20;;;;;;4968133;28;20607;-78
2024/02/02 02:24:12;;;;;;;1.60;1.40;;;4.80;98.20;;;;;;4974674;28;20466;-78
2024/02/02 02:26:41;;;;;;;1.60;1.40;;;4.80;98.20;;;;;;4965468;28;20580;-78
2024/02/02 02:29:08;;;;;;;1.60;1.30;;;4.80;98.20;;;;;;4977136;28;20550;-78
2024/02/02 02:31:35;;;;;;;1.60;1.30;;;4.80;98.20;;;;;;4964854;28;20890;-78
2024/02/02 02:34:02;;;;;;;1.60;1.30;;;4.90;98.20;;;;;;4967273;28;20565;-78
2024/02/02 02:36:29;;;;;;;1.60;1.30;;;4.90;98.20;;;;;;4958891;28;20499;-78
2024/02/02 02:38:57;;;;;;;1.60;1.43;;;4.90;98.20;;;;;;4977950;28;21039;-78
2024/02/02 02:41:24;;;;;;;1.60;1.30;;;4.90;98.20;;;;;;4963378;28;20556;-78
2024/02/02 02:43:50;;;;;;;1.60;1.30;;;4.90;98.20;;;;;;4977549;28;20468;-77
2024/02/02 02:46:18;;;;;;;1.60;1.40;;;5.00;98.20;;;;;;4959546;28;21088;-78
2024/02/02 02:48:45;;;;;;;1.60;1.30;;;5.00;98.20;;;;;;4974620;28;20463;-78
2024/02/02 02:51:12;;;;;;;1.60;1.40;;;5.00;98.20;;;;;;4949832;28;20485;-78
2024/02/02 02:53:39;;;;;;;1.60;1.40;;;5.10;98.20;;;;;;4979715;28;20552;-78
2024/02/02 02:56:08;;;;;;;1.60;1.40;;;5.10;98.20;;;;;;4942710;28;20554;-78
2024/02/02 02:58:35;;;;;;;1.60;1.37;;;5.10;98.20;;;;;;4977156;28;20546;-78
2024/02/02 03:01:01;;;;;;;1.60;1.30;;;5.10;98.20;;;;;;4955143;28;21036;-79
2024/02/02 03:03:28;;;;;;;1.60;1.50;;;5.10;98.20;;;;;;4973983;28;20553;-78
2024/02/02 03:05:55;;;;;;;1.60;1.30;;;5.20;98.20;;;;;;4953089;28;20968;-78
2024/02/02 03:08:22;;;;;;;1.60;1.30;;;5.20;98.20;;;;;;4983970;28;20498;-78
2024/02/02 03:10:49;;;;;;;1.60;1.30;;;5.20;98.20;;;;;;4958264;28;20848;-78
2024/02/02 03:13:17;;;;;;;1.60;1.30;;;5.30;98.20;;;;;;4984459;28;20479;-78
2024/02/02 03:15:44;;;;;;;1.60;1.30;;;5.30;98.20;;;;;;4964388;28;20473;-79
2024/02/02 03:18:12;;;;;;;1.60;1.30;;;5.30;98.20;;;;;;4967059;28;20475;-78
2024/02/02 03:20:39;;;;;;;1.60;1.40;;;5.30;98.20;;;;;;4968831;28;20493;-78
2024/02/02 03:23:06;;;;;;;1.60;1.30;;;5.40;98.20;;;;;;4972689;28;20487;-78
2024/02/02 03:25:32;;;;;;;1.60;1.30;;;5.40;98.20;;;;;;4966363;28;20466;-78
2024/02/02 03:27:59;;;;;;;1.60;1.30;;;5.40;98.20;;;;;;4971955;28;20473;-78
2024/02/02 03:30:28;;;;;;;1.60;1.30;;;5.40;98.20;;;;;;4966775;28;21087;-78
2024/02/02 03:32:54;;;;;;;1.60;1.30;;;5.50;98.20;;;;;;4959132;28;20486;-78
2024/02/02 03:35:21;;;;;;;1.60;1.33;;;5.40;98.20;;;;;;4959914;28;20470;-78
2024/02/02 03:37:48;;;;;;;1.60;1.37;;;5.50;98.20;;;;;;4970838;28;20516;-78
2024/02/02 03:40:15;;;;;;;1.60;1.30;;;5.50;98.20;;;;;;4969797;28;20485;-78
2024/02/02 03:42:42;;;;;;;1.60;1.37;;;5.50;98.20;;;;;;4972675;28;20581;-78
2024/02/02 03:45:10;;;;;;;1.60;1.30;;;5.50;98.20;;;;;;4963673;28;20558;-77
2024/02/02 03:47:38;;;;;;;1.60;1.30;;;5.50;98.20;;;;;;4974373;28;20710;-78
2024/02/02 03:50:05;;;;;;;1.60;1.40;;;5.60;98.20;;;;;;4961933;28;20969;-78
2024/02/02 03:52:32;;;;;;;1.60;1.30;;;5.60;98.20;;;;;;4969873;28;20551;-78
2024/02/02 03:54:59;;;;;;;1.60;1.30;;;5.60;98.20;;;;;;4952754;28;20913;-77
2024/02/02 03:57:26;;;;;;;1.60;1.40;;;5.60;98.20;;;;;;4966758;28;20481;-77
2024/02/02 03:59:52;;;;;;;1.60;1.30;;;5.60;98.20;;;;;;4970584;28;20466;-77
2024/02/02 04:02:19;;;;;;;1.60;1.30;;;5.60;98.20;;;;;;4959369;28;21145;-78
2024/02/02 04:04:47;;;;;;;1.60;1.30;;;5.60;98.20;;;;;;4972792;28;20529;-78
2024/02/02 04:07:14;;;;;;;1.60;1.30;;;5.60;98.20;;;;;;4968516;28;20556;-78
2024/02/02 04:09:41;;;;;;;1.60;1.40;;;5.60;98.20;;;;;;4974465;28;20489;-79
2024/02/02 04:12:08;;;;;;;1.60;1.30;;;5.60;98.20;;;;;;4958581;28;20517;-78
2024/02/02 04:14:35;;;;;;;1.60;1.20;;;5.60;98.20;;;;;;4973592;28;20517;-78
2024/02/02 04:17:02;;;;;;;1.60;1.30;;;5.60;98.20;;;;;;4959098;28;20564;-78
2024/02/02 04:19:29;;;;;;;1.60;1.30;;;5.60;98.20;;;;;;4973968;28;20461;-78
2024/02/02 04:21:57;;;;;;;1.60;1.30;;;5.60;98.20;;;;;;4962613;28;20495;-78
2024/02/02 04:24:24;;;;;;;1.60;1.40;;;5.70;98.20;;;;;;4972032;28;20894;-78
2024/02/02 04:26:51;;;;;;;1.63;1.40;;;5.70;98.20;;;;;;4965406;28;20504;-78
2024/02/02 04:29:18;;;;;;;1.60;1.30;;;5.70;98.20;;;;;;4970212;28;20470;-78
2024/02/02 04:31:45;;;;;;;1.60;1.30;;;5.70;98.20;;;;;;4963538;28;20992;-78
2024/02/02 04:34:12;;;;;;;1.60;1.30;;;5.70;98.20;;;;;;4969183;28;21472;-78
2024/02/02 04:36:40;;;;;;;1.60;1.30;;;5.70;98.20;;;;;;4957780;28;20558;-78
2024/02/02 04:39:09;;;;;;;1.60;1.30;;;5.70;98.20;;;;;;4974608;28;20995;-78
2024/02/02 04:41:36;;;;;;;1.60;1.30;;;5.70;98.20;;;;;;4953068;28;20489;-78
2024/02/02 04:44:03;;;;;;;1.60;1.30;;;5.80;98.20;;;;;;4979114;28;20505;-78
2024/02/02 04:46:30;;;;;;;1.60;1.30;;;5.80;98.20;;;;;;4968896;28;20942;-78
2024/02/02 04:48:56;;;;;;;1.60;1.30;;;5.80;98.20;;;;;;4981790;28;20553;-78
2024/02/02 04:51:23;;;;;;;1.60;1.23;;;5.80;98.20;;;;;;4961029;28;20568;-77
2024/02/02 04:53:50;;;;;;;1.60;1.30;;;5.80;98.20;;;;;;4984818;28;20553;-77
2024/02/02 04:56:19;;;;;;;1.60;1.30;;;5.80;98.20;;;;;;4963893;28;20478;-78
2024/02/02 04:58:45;;;;;;;1.60;1.30;;;5.80;98.20;;;;;;4988427;28;20533;-78
2024/02/02 05:01:12;;;;;;;1.60;1.30;;;5.70;98.20;;;;;;4962202;28;20834;-78
2024/02/02 05:03:39;;;;;;;1.60;1.30;;;5.80;98.20;;;;;;4988124;28;20964;-78
2024/02/02 05:06:06;;;;;;;1.60;1.30;;;5.70;98.20;;;;;;4961018;28;20515;-78
2024/02/02 05:08:33;;;;;;;1.57;1.23;;;5.80;98.20;;;;;;4978048;28;20533;-78
2024/02/02 05:11:00;;;;;;;1.60;1.30;;;5.70;98.20;;;;;;4961073;28;20569;-78
2024/02/02 05:13:28;;;;;;;1.60;1.30;;;5.80;98.20;;;;;;4987375;28;20742;-78
2024/02/02 05:15:55;;;;;;;1.60;1.23;;;5.80;98.20;;;;;;4954914;28;20494;-78
2024/02/02 05:18:22;;;;;;;1.60;1.30;;;5.80;98.20;;;;;;4987072;28;20521;-77
2024/02/02 05:20:49;;;;;;;1.60;1.20;;;5.80;98.20;;;;;;4966319;28;20511;-79
2024/02/02 05:23:16;;;;;;;1.60;1.30;;;5.80;98.20;;;;;;4989059;28;20471;-78
2024/02/02 05:25:43;;;;;;;1.60;1.20;;;5.80;98.20;;;;;;4982929;28;20489;-78
2024/02/02 05:28:10;;;;;;;1.60;1.30;;;5.80;98.20;;;;;;4977233;28;21003;-78
2024/02/02 05:30:38;;;;;;;1.60;1.30;;;5.80;98.20;;;;;;4978822;28;20482;-78
2024/02/02 05:33:05;;;;;;;1.60;1.30;;;5.80;98.20;;;;;;4987315;28;20943;-78
2024/02/02 05:35:32;;;;;;;1.60;1.30;;;5.80;98.20;;;;;;4976027;28;20557;-78
2024/02/02 05:37:59;;;;;;;1.60;1.20;;;5.80;98.20;;;;;;4978650;28;20516;-79
2024/02/02 05:40:26;;;;;;;1.60;1.30;;;5.90;98.20;;;;;;4971979;28;20492;-78
2024/02/02 05:42:53;;;;;;;1.60;1.30;;;5.80;98.20;;;;;;4974093;28;20528;-79
2024/02/02 05:45:20;;;;;;;1.60;1.30;;;5.80;98.20;;;;;;4974307;28;20467;-79
2024/02/02 05:47:48;;;;;;;1.60;1.30;;;5.80;98.20;;;;;;4980832;28;20490;-78
2024/02/02 05:50:15;;;;;;;1.60;1.30;;;5.80;98.20;;;;;;4972881;28;21144;-78
2024/02/02 05:52:42;;;;;;;1.60;1.20;;;5.80;98.20;;;;;;4981719;28;20733;-78
2024/02/02 05:55:09;;;;;;;1.60;1.30;;;5.80;98.20;;;;;;4969559;28;20720;-79
2024/02/02 05:57:36;;;;;;;1.60;1.30;;;5.90;98.20;;;;;;4974176;28;20481;-79
2024/02/02 06:00:03;;;;;;;1.60;1.30;;;5.90;98.20;;;;;;4971734;28;20458;-79
2024/02/02 06:02:30;;;;;;;1.60;1.30;;;5.90;98.20;;;;;;4967697;28;20881;-78
2024/02/02 06:04:58;;;;;;;1.60;1.30;;;5.90;98.20;;;;;;4969046;28;20472;-78
2024/02/02 06:07:25;;;;;;;1.60;1.30;;;5.90;98.20;;;;;;4967029;28;20481;-78
2024/02/02 06:09:52;;;;;;;1.60;1.40;;;5.80;98.20;;;;;;4957842;28;20853;-79
2024/02/02 06:12:19;;;;;;;1.60;1.20;;;5.90;98.20;;;;;;4959639;28;20485;-78
2024/02/02 06:14:45;;;;;;;1.60;1.23;;;5.80;98.20;;;;;;4960029;28;20476;-78
2024/02/02 06:17:12;;;;;;;1.60;1.40;;;5.80;98.20;;;;;;4954096;28;20974;-77
2024/02/02 06:19:39;;;;;;;1.60;1.30;;;5.80;98.20;;;;;;4959614;28;20463;-78
2024/02/02 06:22:07;;;;;;;1.60;1.27;;;5.80;98.20;;;;;;4954478;28;20489;-78
2024/02/02 06:24:34;;;;;;;1.60;1.30;;;5.80;98.20;;;;;;4952807;28;20466;-78
2024/02/02 06:27:01;;;;;;;1.60;1.30;;;5.80;98.20;;;;;;4955735;28;20501;-79
2024/02/02 06:29:28;;;;;;;1.60;1.30;;;5.80;98.20;;;;;;4962965;28;20876;-78
2024/02/02 06:31:55;;;;;;;1.60;1.30;;;5.80;98.20;;;;;;4955439;28;20486;-78
2024/02/02 06:34:22;;;;;;;1.60;1.30;;;5.80;98.20;;;;;;4962597;28;20466;-79
2024/02/02 06:36:49;;;;;;;1.60;1.30;;;5.70;98.20;;;;;;4951544;28;20971;-78
2024/02/02 06:39:19;;;;;;;1.60;1.30;;;5.70;98.20;;;;;;4962967;28;20506;-78
2024/02/02 06:41:46;;;;;;;1.60;1.30;;;5.70;98.20;;;;;;4957017;28;20492;-78
2024/02/02 06:44:13;;;;;;;1.60;1.30;;;5.70;98.20;;;;;;4967010;28;21149;-78
2024/02/02 06:49:09;;;;;;;1.60;1.30;;;5.70;98.20;;;;;;4999832;28;20485;-78
2024/02/02 06:51:36;;;;;;;1.60;1.30;;;5.70;98.20;;;;;;4983903;28;20503;-80
2024/02/02 06:54:03;;;;;;;1.60;1.30;;;5.70;98.20;;;;;;5001402;28;20469;-79
2024/02/02 06:56:37;;;;;;;1.60;1.30;;;5.70;98.20;;;;;;4988211;28;20516;-79
2024/02/02 06:59:04;;;;;;;1.60;1.20;;;5.70;98.20;;;;;;4980440;28;20459;-78
2024/02/02 07:01:31;;;;;;;1.60;1.40;;;5.70;98.20;;;;;;4964978;28;21323;-80
2024/02/02 07:03:58;;;;;;;1.60;1.30;;;5.70;98.20;;;;;;4986130;28;20552;-80
2024/02/02 07:06:25;;;;;;;1.60;1.40;;;5.70;98.20;;;;;;4969608;28;20503;-80
2024/02/02 07:08:53;;;;;;;1.60;1.30;;;5.70;98.20;;;;;;4985906;28;20505;-80
2024/02/02 07:11:45;;;;;;;1.60;1.40;;;5.70;98.20;;;;;;4958338;28;20478;-81
2024/02/02 07:14:42;;;;;;;1.60;1.30;;;5.70;98.20;;;;;;4969803;28;20976;-80
2024/02/02 07:17:28;;;;;;;1.60;1.20;;;5.70;98.20;;;;;;4965183;28;20476;-78
2024/02/02 07:19:56;;;;;;;1.60;1.20;;;5.60;98.20;;;;;;4968230;28;20478;-80
2024/02/02 07:22:36;;;;;;;1.60;1.40;;;5.60;98.20;;;;;;4975366;28;20671;-82
2024/02/02 07:25:06;;;;;;;1.53;1.23;;;5.60;98.20;;;;;;4985301;28;20477;-78
2024/02/02 07:27:55;;;;;;;1.60;1.30;;;5.60;98.20;;;;;;4986828;28;20561;-79
2024/02/02 07:30:54;;;;;;;1.60;1.30;;;5.60;98.20;;;;;;4981045;28;20462;-77
2024/02/02 07:33:35;;;;;;;1.60;1.30;;;5.60;98.20;;;;;;4943804;28;20774;-78
2024/02/02 07:36:02;;;;;;;1.60;1.30;;;5.60;98.20;;;;;;4945539;28;20502;-79
2024/02/02 07:38:46;;;;;;;1.60;1.30;;;5.60;98.20;;;;;;4978611;28;20939;-80
2024/02/02 07:41:15;;;;;;;1.60;1.30;;;5.60;98.20;;;;;;4978543;28;20480;-81
2024/02/02 07:43:42;;;;;;;1.60;1.30;;;5.60;98.20;;;;;;5000156;28;20457;-80
2024/02/02 07:46:10;;;;;;;1.60;1.30;;;5.60;98.20;;;;;;4967987;28;20500;-79
2024/02/02 07:48:39;;;;;;;1.60;1.40;;;5.60;98.20;;;;;;4965585;28;21025;-80
2024/02/02 07:51:06;;;;;;;1.60;1.30;;;5.70;98.20;;;;;;4941059;28;20554;-78
2024/02/02 07:53:33;;;;;;;1.60;1.30;;;5.70;98.20;;;;;;4980357;28;20478;-80
2024/02/02 07:56:00;;;;;;;1.60;1.30;;;5.70;98.20;;;;;;4949912;28;20468;-79
2024/02/02 07:58:27;;;;;;;1.60;1.30;;;5.70;98.20;;;;;;4977326;28;20506;-80
2024/02/02 08:00:55;;;;;;;1.60;1.43;;;5.80;98.20;;;;;;4961432;28;20556;-78
2024/02/02 08:03:23;;;;;;;1.60;1.30;;;5.80;98.20;;;;;;4977817;28;20498;-80
2024/02/02 08:05:50;;;;;;;1.60;1.30;;;5.90;98.20;;;;;;4954191;28;20781;-79
2024/02/02 08:08:17;;;;;;;1.60;1.40;;;6.00;98.20;;;;;;4967961;28;21026;-82
2024/02/02 08:10:44;;;;;;;1.60;1.40;;;6.10;98.20;;;;;;4957961;28;20463;-81
2024/02/02 08:13:11;;;;;;;1.60;1.30;;;6.20;98.20;;;;;;4963266;28;20488;-79
2024/02/02 08:15:38;;;;;;;1.60;1.30;;;6.30;98.20;;;;;;4958504;28;20534;-78
2024/02/02 08:18:06;;;;;;;1.60;1.20;;;6.40;98.20;;;;;;4953914;28;20569;-78
2024/02/02 08:20:35;;;;;;;1.60;1.20;;;6.50;98.20;;;;;;4963542;28;20467;-78
2024/02/02 08:23:01;;;;;;;1.60;1.30;;;6.60;98.20;;;;;;4968448;28;20565;-79
2024/02/02 08:25:28;;;;;;;1.60;1.30;;;6.70;98.20;;;;;;4961602;28;20490;-78
2024/02/02 08:27:56;;;;;;;1.60;1.27;;;6.80;98.20;;;;;;4963509;28;20489;-80
2024/02/02 08:30:24;;;;;;;1.60;1.20;;;6.80;98.20;;;;;;4965998;28;20500;-79
2024/02/02 08:32:52;;;;;;;1.60;1.20;;;6.90;98.20;;;;;;4969492;28;20544;-79
2024/02/02 08:35:21;;;;;;;1.60;1.20;;;7.00;98.20;;;;;;4969490;28;21028;-79
2024/02/02 08:37:51;;;;;;;1.60;1.20;;;7.10;98.20;;;;;;4964374;28;20477;-80
2024/02/02 08:40:27;;;;;;;1.60;1.30;;;7.10;98.20;;;;;;4961105;28;20911;-80
2024/02/02 08:42:54;;;;;;;1.60;1.27;;;7.20;98.20;;;;;;4968717;28;20472;-79
2024/02/02 08:45:58;;;;;;;1.60;1.30;;;7.20;98.20;;;;;;4955070;28;20511;-78
2024/02/02 08:48:38;;;;;;;1.60;1.30;;;7.30;98.20;;;;;;4938639;28;20580;-79
2024/02/02 08:51:38;;;;;;;1.60;1.20;;;7.30;98.20;;;;;;4937098;28;20464;-77
2024/02/02 08:54:33;;;;;;;1.60;1.10;;;7.30;98.20;;;;;;4957596;28;20494;-77
2024/02/02 08:57:29;;;;;;;1.60;1.20;;;7.40;98.20;;;;;;4951246;28;20478;-78
2024/02/02 08:59:56;;;;;;;1.60;1.20;;;7.40;98.20;;;;;;4952489;28;20546;-78
2024/02/02 09:02:59;;;;;;;1.60;1.20;;;7.40;98.20;;;;;;4945180;28;20489;-80
2024/02/02 09:05:27;;;;;;;1.60;1.30;;;7.40;98.20;;;;;;4948037;28;20470;-77
2024/02/02 09:08:09;;;;;;;1.60;1.20;;;7.40;98.20;;;;;;4948413;28;20482;-78
2024/02/02 09:11:10;;;;;;;1.60;1.20;;;7.50;98.20;;;;;;4949042;28;20467;-79
2024/02/02 09:13:40;;;;;;;1.60;1.20;;;7.60;98.20;;;;;;4939370;28;20934;-80
2024/02/02 09:16:08;;;;;;;1.60;1.20;;;7.80;98.20;;;;;;4945661;28;20476;-81
2024/02/02 09:18:38;;;;;;;1.60;1.20;;;7.90;98.20;;;;;;4961493;28;20579;-79
2024/02/02 09:21:07;;;;;;;1.60;1.30;;;8.00;98.20;;;;;;4937208;28;20483;-80
2024/02/02 09:23:35;;;;;;;1.60;1.20;;;8.10;98.20;;;;;;4963458;28;20483;-78
2024/02/02 09:26:03;;;;;;;1.60;1.20;;;8.20;98.20;;;;;;4942730;28;20478;-80
2024/02/02 09:28:40;;;;;;;1.60;1.30;;;8.20;98.20;;;;;;4960074;28;20487;-79
2024/02/02 09:31:10;;;;;;;1.60;1.20;;;8.30;98.20;;;;;;4948174;28;20506;-80
2024/02/02 09:33:49;;;;;;;1.60;1.20;;;8.30;98.20;;;;;;4966597;28;20439;-77
2024/02/02 09:36:16;;;;;;;1.70;1.60;;;8.30;98.20;;;;;;4956336;28;20501;-80
2024/02/02 09:38:56;;;;;;;1.60;1.20;;;8.40;98.20;;;;;;4972261;28;20483;-81
2024/02/02 09:41:46;;;;;;;1.60;1.20;;;8.50;98.20;;;;;;4951081;28;20486;-81
2024/02/02 09:44:33;;;;;;;1.60;1.20;;;8.50;98.20;;;;;;4957397;28;20463;-79
2024/02/02 09:47:08;;;;;;;1.60;1.30;;;8.50;98.20;;;;;;4964888;28;20481;-81
2024/02/02 09:49:47;;;;;;;1.60;1.20;;;8.60;98.20;;;;;;4987736;28;20464;-80
2024/02/02 09:52:26;;;;;;;1.60;1.20;;;8.60;98.20;;;;;;4975303;28;20580;-83
2024/02/02 09:54:58;;;;;;;1.60;1.20;;;8.60;98.20;;;;;;4982101;28;20461;-81
2024/02/02 09:57:35;;;;;;;1.60;1.20;;;8.60;98.20;;;;;;4983319;28;20481;-81
2024/02/02 10:00:13;;;;;;;1.53;1.10;;;8.60;98.20;;;;;;4978601;28;20461;-79
2024/02/02 10:02:52;;;;;;;1.60;1.20;;;8.70;98.20;;;;;;4967785;28;21102;-79
2024/02/02 10:05:27;;;;;;;1.60;1.20;;;8.70;98.20;;;;;;4977657;28;20544;-79
2024/02/02 10:08:06;;;;;;;1.57;1.10;;;8.80;98.20;;;;;;4973059;28;20492;-81
2024/02/02 10:10:46;;;;;;;2.13;1.93;;;8.80;98.20;;;;;;4983514;28;20538;-80
2024/02/02 10:13:28;;;;;;;1.53;1.10;;;8.90;98.20;;;;;;4977258;28;20511;-80
2024/02/02 10:16:19;;;;;;;1.57;1.10;;;9.00;98.20;;;;;;4973573;28;20580;-79
2024/02/02 10:19:06;;;;;;;1.60;1.10;;;9.00;98.20;;;;;;4973813;28;21073;-80
2024/02/02 10:21:47;;;;;;;1.60;1.20;;;9.10;98.20;;;;;;4964809;28;20485;-80
2024/02/02 10:24:39;;;;;;;1.60;1.10;;;9.10;98.20;;;;;;4986781;28;20505;-80
2024/02/02 10:27:22;;;;;;;1.60;1.20;;;9.20;98.20;;;;;;4979577;28;20589;-80
2024/02/02 10:29:57;;;;;;;1.60;1.20;;;9.20;98.20;;;;;;4983582;28;20583;-79
2024/02/02 10:32:42;;;;;;;1.57;1.10;;;9.30;98.20;;;;;;4983508;28;20491;-79
2024/02/02 10:35:21;;;;;;;1.57;1.10;;;9.40;98.20;;;;;;4983049;28;20540;-78
2024/02/02 10:37:50;;;;;;;1.60;1.10;;;9.40;98.20;;;;;;4972255;28;20505;-79
2024/02/02 10:40:37;;;;;;;1.60;1.20;;;9.50;98.20;;;;;;4987177;28;20493;-80
2024/02/02 10:43:27;;;;;;;1.57;1.10;;;9.50;98.20;;;;;;4994411;28;20481;-80
2024/02/02 10:46:06;;;;;;;1.57;1.20;;;9.70;98.20;;;;;;4966246;28;20501;-78
2024/02/02 10:48:52;;;;;;;1.60;1.10;;;9.80;98.20;;;;;;4994598;28;20501;-78
2024/02/02 10:51:43;;;;;;;1.60;1.20;;;10.00;98.20;;;;;;4975981;28;20485;-79
2024/02/02 10:54:23;;;;;;;1.53;1.10;;;10.00;98.20;;;;;;4982614;28;21019;-79
2024/02/02 10:57:03;;;;;;;1.60;1.10;;;10.10;98.20;;;;;;4969396;28;20473;-80
2024/02/02 10:59:40;;;;;;;1.60;1.10;;;10.10;98.20;;;;;;4957462;28;20467;-79
2024/02/02 11:02:17;;;;;;;1.53;1.10;;;10.20;98.20;;;;;;4955286;28;20501;-80
2024/02/02 11:05:00;;;;;;;1.60;1.20;;;10.20;98.20;;;;;;4966712;28;20545;-79
2024/02/02 11:07:30;;;;;;;1.60;1.20;;;10.30;98.20;;;;;;4953549;28;20874;-80
2024/02/02 11:10:00;;;;;;;1.57;1.10;;;10.30;98.20;;;;;;4968854;28;20501;-80
2024/02/02 11:12:36;;;;;;;1.57;1.10;;;10.30;98.20;;;;;;4965352;28;20482;-80
2024/02/02 11:15:19;;;;;;;1.60;1.10;;;10.50;98.20;;;;;;4961004;28;20541;-81
2024/02/02 11:17:53;;;;;;;1.60;1.10;;;10.50;98.20;;;;;;4952253;28;20486;-78
2024/02/02 11:20:32;;;;;;;1.60;1.20;;;10.60;98.20;;;;;;4956512;28;20520;-81
2024/02/02 11:23:03;;;;;;;1.60;1.10;;;10.70;98.20;;;;;;4966141;28;20553;-81
2024/02/02 11:25:37;;;;;;;1.57;1.10;;;10.70;98.20;;;;;;4963179;28;22609;-78
2024/02/02 11:28:05;;;;;;;1.53;1.07;;;10.80;98.20;;;;;;4956117;28;20518;-80
2024/02/02 11:30:57;;;;;;;1.53;1.10;;;10.80;98.20;;;;;;4965982;28;20470;-79
2024/02/02 11:33:42;;;;;;;1.60;1.10;;;10.80;98.20;;;;;;4977170;28;20477;-81
2024/02/02 11:36:21;;;;;;;1.53;1.10;;;10.80;98.20;;;;;;4973070;28;20514;-77
2024/02/02 11:39:03;;;;;;;1.57;1.10;;;10.70;98.20;;;;;;4966306;28;20499;-79
2024/02/02 11:41:34;;;;;;;1.50;1.00;;;10.70;98.20;;;;;;4951869;28;20715;-78
2024/02/02 11:44:01;;;;;;;1.53;1.10;;;10.70;98.20;;;;;;4972196;28;20517;-80
2024/02/02 11:46:32;;;;;;;1.60;1.10;;;10.80;98.20;;;;;;4954344;28;21079;-81
2024/02/02 11:49:07;;;;;;;1.50;1.00;;;10.90;98.20;;;;;;4970240;28;20475;-80
2024/02/02 11:51:38;;;;;;;1.53;1.00;;;11.00;98.20;;;;;;4954659;28;20483;-80
2024/02/02 11:54:14;;;;;;;1.50;1.00;;;11.10;98.20;;;;;;4973635;28;20451;-80
2024/02/02 11:56:46;;;;;;;4.60;1.63;;;11.20;98.20;;;;;;4958797;28;20489;-79
2024/02/02 11:59:16;;;;;;;1.50;1.00;;;11.20;98.20;;;;;;4969790;28;20470;-80
2024/02/02 12:01:56;;;;;;;1.60;1.10;;;11.30;98.20;;;;;;4961934;28;20513;-80
2024/02/02 12:04:35;;;;;;;1.57;1.10;;;11.30;98.20;;;;;;4972448;28;20565;-79
2024/02/02 12:07:13;;;;;;;1.60;1.13;;;11.40;98.20;;;;;;4959690;28;20513;-80
2024/02/02 12:09:44;;;;;;;1.57;1.00;;;11.40;98.20;;;;;;4972720;28;20467;-80
2024/02/02 12:12:16;;;;;;;1.53;1.00;;;11.40;98.20;;;;;;4963475;28;20519;-79
2024/02/02 12:14:49;;;;;;;1.53;0.93;;;11.40;98.20;;;;;;4971772;28;20534;-80
2024/02/02 12:17:17;;;;;;;1.60;1.10;;;11.40;98.20;;;;;;4965594;28;20496;-79
2024/02/02 12:19:44;;;;;;;1.60;1.20;;;11.40;98.20;;;;;;4973737;28;20930;-78
2024/02/02 12:22:17;;;;;;;1.53;1.00;;;11.30;98.20;;;;;;4965232;28;20524;-77
2024/02/02 12:24:44;;;;;;;1.57;1.10;;;11.20;98.20;;;;;;4969391;28;20509;-79
2024/02/02 12:27:11;;;;;;;1.50;1.00;;;11.20;98.20;;;;;;4971973;28;20787;-78
2024/02/02 12:29:38;;;;;;;1.50;1.00;;;11.20;98.20;;;;;;4982188;28;20678;-79
2024/02/02 12:32:06;;;;;;;1.50;1.10;;;11.20;98.20;;;;;;4970682;28;20529;-80
2024/02/02 12:34:33;;;;;;;1.53;1.03;;;11.20;98.20;;;;;;4968160;28;20455;-78
2024/02/02 12:37:01;;;;;;;1.53;1.00;;;11.10;98.20;;;;;;4960907;28;21344;-79
2024/02/02 12:39:31;;;;;;;1.53;1.10;;;11.00;98.20;;;;;;4968296;28;20472;-78
2024/02/02 12:41:58;;;;;;;1.60;1.10;;;10.90;98.20;;;;;;4959746;28;20542;-78
2024/02/02 12:44:26;;;;;;;1.57;1.10;;;10.90;98.20;;;;;;4968250;28;20549;-81
2024/02/02 12:46:54;;;;;;;1.53;1.00;;;10.90;98.20;;;;;;4957388;28;20485;-79
2024/02/02 12:49:22;;;;;;;1.60;1.10;;;11.00;98.20;;;;;;4965856;28;20458;-80
2024/02/02 12:51:49;;;;;;;1.50;1.10;;;11.10;98.20;;;;;;4954250;28;20754;-79
2024/02/02 12:54:16;;;;;;;1.57;1.10;;;11.10;98.20;;;;;;4959213;28;20459;-78
2024/02/02 12:56:47;;;;;;;1.50;1.10;;;11.10;98.20;;;;;;5018950;23;20514;-83
2024/02/02 12:59:17;;;;;;;1.53;1.00;;;11.20;98.20;;;;;;4983830;28;20560;-82
2024/02/02 13:01:45;;;;;;;1.57;1.00;;;11.30;98.20;;;;;;4975318;28;20472;-81
2024/02/02 13:04:13;;;;;;;3.10;2.80;;;11.40;98.20;;;;;;4992386;28;20573;-80
2024/02/02 13:06:40;;;;;;;1.60;1.10;;;11.50;98.20;;;;;;4983192;28;20480;-81
2024/02/02 13:10:05;;;;;;;1.50;1.00;;;11.60;98.20;;;;;;4996946;28;20475;-81
2024/02/02 13:12:39;;;;;;;1.60;1.10;;;11.60;98.20;;;;;;4991010;28;20556;-82
2024/02/02 13:15:10;;;;;;;4.93;3.27;;;11.60;98.20;;;;;;4989192;28;20921;-81
2024/02/02 13:17:43;;;;;;;1.53;1.00;;;11.60;98.20;;;;;;4991614;28;20472;-82